Private Wetterstation Sandau
Wetterdaten: Dienstag, 29.01.2013
Datum Zeit Temp. A. Feuchte A. Luftdruck Regen Wind Richtung Richtung Taupunkt Windchill
29.01.2013 00:01 1,3 C 90 % 1012,1 hPa 0,0 l/m 4,0 km/h (1 Bft) S-SW 202 -0,2 C 1,3 C
29.01.2013 00:06 1,3 C 90 % 1011,8 hPa 0,0 l/m 3,6 km/h (1 Bft) S-SW 202 -0,2 C 1,3 C
29.01.2013 00:11 1,3 C 90 % 1011,3 hPa 0,0 l/m 2,5 km/h (1 Bft) S-SO 157 -0,2 C 1,3 C
29.01.2013 00:16 1,3 C 90 % 1011,6 hPa 0,0 l/m 9,4 km/h (2 Bft) S-SO 157 -0,2 C -1,6 C
29.01.2013 00:21 1,3 C 90 % 1011,3 hPa 0,0 l/m 5,4 km/h (1 Bft) W-SW 247 -0,2 C -0,3 C
29.01.2013 00:26 1,3 C 90 % 1011,2 hPa 0,0 l/m 4,7 km/h (1 Bft) S-SW 202 -0,2 C 0,0 C
29.01.2013 00:31 1,3 C 90 % 1011,0 hPa 0,0 l/m 9,4 km/h (2 Bft) S-SW 202 -0,2 C -1,6 C
29.01.2013 00:36 1,3 C 90 % 1011,0 hPa 0,0 l/m 7,2 km/h (2 Bft) W-SW 247 -0,2 C -1,0 C
29.01.2013 00:41 1,3 C 90 % 1010,9 hPa 0,0 l/m 7,9 km/h (2 Bft) SO 135 -0,2 C -1,2 C
29.01.2013 00:46 1,3 C 90 % 1010,9 hPa 0,0 l/m 15,5 km/h (3 Bft) S-SW 202 -0,2 C -2,9 C
29.01.2013 00:51 1,3 C 90 % 1011,1 hPa 0,0 l/m 17,3 km/h (3 Bft) S-SW 202 -0,2 C -3,2 C
29.01.2013 00:56 1,4 C 90 % 1011,1 hPa 0,0 l/m 9,7 km/h (2 Bft) S-SW 202 -0,1 C -1,6 C
29.01.2013 01:01 1,5 C 90 % 1011,0 hPa 0,0 l/m 9,7 km/h (2 Bft) SW 225 0,0 C -1,4 C
29.01.2013 01:06 1,5 C 90 % 1010,9 hPa 0,0 l/m 16,2 km/h (3 Bft) S-SW 202 0,0 C -2,8 C
29.01.2013 01:11 1,6 C 90 % 1011,0 hPa 0,0 l/m 6,5 km/h (2 Bft) SO 135 0,1 C -0,4 C
29.01.2013 01:16 1,6 C 90 % 1010,9 hPa 0,0 l/m 9,4 km/h (2 Bft) S-SO 157 0,1 C -1,3 C
29.01.2013 01:21 1,8 C 90 % 1010,6 hPa 0,0 l/m 16,9 km/h (3 Bft) S-SW 202 0,3 C -2,5 C
29.01.2013 01:26 1,8 C 90 % 1010,6 hPa 0,0 l/m 6,1 km/h (2 Bft) S-SO 157 0,3 C 0,0 C
29.01.2013 01:31 1,8 C 90 % 1010,1 hPa 0,0 l/m 10,4 km/h (2 Bft) S 180 0,3 C -1,3 C
29.01.2013 01:36 1,9 C 90 % 1009,8 hPa 0,0 l/m 7,6 km/h (2 Bft) S-SW 202 0,4 C -0,4 C
29.01.2013 01:41 1,9 C 90 % 1009,6 hPa 0,0 l/m 6,8 km/h (2 Bft) S-SW 202 0,4 C -0,1 C
29.01.2013 01:46 1,9 C 90 % 1009,6 hPa 0,0 l/m 15,5 km/h (3 Bft) S-SW 202 0,4 C -2,2 C
29.01.2013 01:51 1,9 C 90 % 1009,4 hPa 0,0 l/m 14,4 km/h (3 Bft) W-SW 247 0,4 C -2,0 C
29.01.2013 01:56 1,9 C 89 % 1009,3 hPa 0,0 l/m 11,2 km/h (2 Bft) S-SO 157 0,3 C -1,3 C
29.01.2013 02:01 1,9 C 89 % 1009,2 hPa 0,0 l/m 4,7 km/h (1 Bft) SW 225 0,3 C 0,7 C
29.01.2013 02:06 1,9 C 89 % 1009,0 hPa 0,0 l/m 11,9 km/h (2 Bft) S-SW 202 0,3 C -1,5 C
29.01.2013 02:11 2,1 C 89 % 1009,0 hPa 0,0 l/m 15,1 km/h (3 Bft) SW 225 0,5 C -1,8 C
29.01.2013 02:16 2,1 C 89 % 1008,8 hPa 0,0 l/m 8,6 km/h (2 Bft) S-SW 202 0,5 C -0,4 C
29.01.2013 02:21 2,1 C 88 % 1008,8 hPa 0,0 l/m 17,6 km/h (3 Bft) S 180 0,3 C -2,2 C
29.01.2013 02:26 2,1 C 88 % 1008,7 hPa 0,0 l/m 8,3 km/h (2 Bft) S 180 0,3 C -0,4 C
29.01.2013 02:31 2,2 C 88 % 1008,5 hPa 0,0 l/m 11,2 km/h (2 Bft) S-SW 202 0,4 C -1,0 C
29.01.2013 02:36 2,1 C 88 % 1008,6 hPa 0,0 l/m 6,1 km/h (2 Bft) W-SW 247 0,3 C 0,4 C
29.01.2013 02:41 2,1 C 88 % 1008,5 hPa 0,0 l/m 7,2 km/h (2 Bft) S-SW 202 0,3 C -0,0 C
29.01.2013 02:46 2,1 C 88 % 1008,1 hPa 0,0 l/m 5,0 km/h (1 Bft) S 180 0,3 C 0,8 C
29.01.2013 02:51 2,1 C 88 % 1008,1 hPa 0,0 l/m 7,6 km/h (2 Bft) W-SW 247 0,3 C -0,2 C
29.01.2013 02:56 2,1 C 88 % 1008,0 hPa 0,0 l/m 3,6 km/h (1 Bft) SW 225 0,3 C 2,1 C
29.01.2013 03:01 2,1 C 88 % 1007,7 hPa 0,0 l/m 5,8 km/h (2 Bft) S-SO 157 0,3 C 0,5 C
29.01.2013 03:06 1,9 C 88 % 1007,7 hPa 0,0 l/m 4,0 km/h (1 Bft) S-SO 157 0,1 C 1,9 C
29.01.2013 03:11 1,9 C 88 % 1007,6 hPa 0,0 l/m 11,9 km/h (2 Bft) S-SW 202 0,1 C -1,5 C
29.01.2013 03:16 1,9 C 88 % 1007,7 hPa 0,0 l/m 7,2 km/h (2 Bft) S-SO 157 0,1 C -0,3 C
29.01.2013 03:21 1,9 C 88 % 1007,7 hPa 0,0 l/m 20,9 km/h (4 Bft) S-SW 202 0,1 C -3,0 C
29.01.2013 03:26 1,9 C 89 % 1007,5 hPa 0,5 l/m 22,7 km/h (4 Bft) S-SW 202 0,3 C -3,2 C
29.01.2013 03:31 2,1 C 89 % 1007,1 hPa 0,0 l/m 17,6 km/h (3 Bft) S-SW 202 0,5 C -2,2 C
29.01.2013 03:36 2,1 C 89 % 1007,2 hPa 0,0 l/m 8,3 km/h (2 Bft) S-SW 202 0,5 C -0,4 C
29.01.2013 03:41 2,1 C 89 % 1007,1 hPa 0,0 l/m 22,0 km/h (4 Bft) S-SW 202 0,5 C -2,9 C
29.01.2013 03:46 2,1 C 89 % 1007,0 hPa 0,0 l/m 15,1 km/h (3 Bft) S-SW 202 0,5 C -1,8 C
29.01.2013 03:51 2,1 C 89 % 1006,5 hPa 0,0 l/m 17,3 km/h (3 Bft) S-SW 202 0,5 C -2,2 C
29.01.2013 03:56 2,1 C 89 % 1006,5 hPa 0,5 l/m 23,0 km/h (4 Bft) S 180 0,5 C -3,0 C
29.01.2013 04:01 1,9 C 89 % 1006,5 hPa 0,0 l/m 10,8 km/h (2 Bft) S-SW 202 0,3 C -1,2 C
29.01.2013 04:06 1,9 C 90 % 1006,5 hPa 0,0 l/m 23,4 km/h (4 Bft) SW 225 0,4 C -3,3 C
29.01.2013 04:11 1,9 C 90 % 1006,2 hPa 0,0 l/m 13,3 km/h (3 Bft) SW 225 0,4 C -1,8 C
29.01.2013 04:16 1,8 C 90 % 1006,2 hPa 0,0 l/m 19,4 km/h (3 Bft) W-SW 247 0,3 C -2,9 C
29.01.2013 04:21 1,9 C 90 % 1006,2 hPa 0,0 l/m 11,2 km/h (2 Bft) S-SW 202 0,4 C -1,3 C
29.01.2013 04:26 1,8 C 90 % 1006,2 hPa 0,0 l/m 10,1 km/h (2 Bft) S 180 0,3 C -1,2 C
29.01.2013 04:31 1,8 C 90 % 1006,1 hPa 0,0 l/m 11,5 km/h (2 Bft) S-SO 157 0,3 C -1,5 C
29.01.2013 04:36 1,8 C 90 % 1006,0 hPa 0,0 l/m 19,4 km/h (3 Bft) S 180 0,3 C -2,9 C
29.01.2013 04:41 1,8 C 91 % 1005,8 hPa 0,0 l/m 11,9 km/h (2 Bft) S-SO 157 0,5 C -1,6 C
29.01.2013 04:46 1,9 C 91 % 1005,7 hPa 0,0 l/m 18,7 km/h (3 Bft) S 180 0,6 C -2,7 C
29.01.2013 04:51 1,9 C 91 % 1005,4 hPa 0,0 l/m 13,3 km/h (3 Bft) S-SW 202 0,6 C -1,8 C
29.01.2013 04:56 1,9 C 91 % 1005,6 hPa 0,0 l/m 13,0 km/h (3 Bft) S 180 0,6 C -1,7 C
29.01.2013 05:01 1,9 C 91 % 1005,5 hPa 0,0 l/m 16,6 km/h (3 Bft) SW 225 0,6 C -2,3 C
29.01.2013 05:06 1,9 C 91 % 1005,1 hPa 0,0 l/m 15,5 km/h (3 Bft) S-SO 157 0,6 C -2,2 C
29.01.2013 05:11 1,9 C 91 % 1005,0 hPa 0,0 l/m 19,4 km/h (3 Bft) S-SW 202 0,6 C -2,8 C
29.01.2013 05:16 2,1 C 91 % 1004,9 hPa 0,0 l/m 8,3 km/h (2 Bft) S-SW 202 0,8 C -0,4 C
29.01.2013 05:21 2,1 C 91 % 1004,9 hPa 0,0 l/m 12,6 km/h (3 Bft) SW 225 0,8 C -1,4 C
29.01.2013 05:26 2,1 C 91 % 1004,9 hPa 0,0 l/m 15,1 km/h (3 Bft) W-SW 247 0,8 C -1,8 C
29.01.2013 05:31 2,2 C 91 % 1004,9 hPa 0,0 l/m 27,0 km/h (4 Bft) S-SW 202 0,9 C -3,3 C
29.01.2013 05:36 2,3 C 91 % 1004,6 hPa 0,0 l/m 10,8 km/h (2 Bft) SW 225 1,0 C -0,8 C
29.01.2013 05:41 2,3 C 91 % 1004,5 hPa 0,0 l/m 27,4 km/h (4 Bft) W-SW 247 1,0 C -3,2 C
29.01.2013 05:46 2,4 C 91 % 1004,5 hPa 0,0 l/m 21,6 km/h (4 Bft) S 180 1,1 C -2,4 C
29.01.2013 05:51 2,4 C 91 % 1004,6 hPa 0,0 l/m 12,6 km/h (3 Bft) SW 225 1,1 C -1,0 C
29.01.2013 05:56 2,5 C 91 % 1004,6 hPa 0,0 l/m 7,6 km/h (2 Bft) SW 225 1,2 C 0,3 C
29.01.2013 06:01 2,5 C 91 % 1004,5 hPa 0,0 l/m 22,3 km/h (4 Bft) W-SW 247 1,2 C -2,4 C
29.01.2013 06:06 2,5 C 91 % 1004,3 hPa 0,0 l/m 7,9 km/h (2 Bft) SW 225 1,2 C 0,2 C
29.01.2013 06:11 2,6 C 91 % 1004,3 hPa 0,0 l/m 13,0 km/h (3 Bft) S-SW 202 1,3 C -0,8 C
29.01.2013 06:16 2,6 C 91 % 1004,5 hPa 0,0 l/m 9,7 km/h (2 Bft) S-SW 202 1,3 C -0,1 C
29.01.2013 06:21 2,6 C 91 % 1004,3 hPa 0,0 l/m 10,1 km/h (2 Bft) S-SW 202 1,3 C -0,2 C
29.01.2013 06:26 2,6 C 91 % 1004,3 hPa 0,0 l/m 7,9 km/h (2 Bft) S 180 1,3 C 0,3 C
29.01.2013 06:31 2,6 C 91 % 1004,3 hPa 0,0 l/m 22,0 km/h (4 Bft) S-SW 202 1,3 C -2,2 C
29.01.2013 06:36 2,6 C 91 % 1004,3 hPa 0,0 l/m 11,2 km/h (2 Bft) S-SW 202 1,3 C -0,5 C
29.01.2013 06:41 2,6 C 91 % 1004,3 hPa 0,0 l/m 17,6 km/h (3 Bft) SW 225 1,3 C -1,6 C
29.01.2013 06:46 2,6 C 91 % 1004,4 hPa 0,0 l/m 16,6 km/h (3 Bft) W 270 1,3 C -1,5 C
29.01.2013 06:51 2,6 C 91 % 1004,1 hPa 0,0 l/m 9,7 km/h (2 Bft) S-SW 202 1,3 C -0,1 C
29.01.2013 06:56 2,7 C 91 % 1004,2 hPa 0,0 l/m 11,9 km/h (2 Bft) SW 225 1,4 C -0,5 C
29.01.2013 07:01 2,7 C 91 % 1004,3 hPa 0,0 l/m 16,6 km/h (3 Bft) SW 225 1,4 C -1,3 C
29.01.2013 07:06 2,7 C 91 % 1004,2 hPa 0,0 l/m 11,9 km/h (2 Bft) W-SW 247 1,4 C -0,5 C
29.01.2013 07:11 2,8 C 91 % 1004,1 hPa 0,0 l/m 15,8 km/h (3 Bft) S-SW 202 1,5 C -1,1 C
29.01.2013 07:16 2,9 C 91 % 1004,1 hPa 0,0 l/m 12,2 km/h (2 Bft) W-SW 247 1,6 C -0,3 C
29.01.2013 07:21 2,9 C 91 % 1004,3 hPa 0,0 l/m 7,6 km/h (2 Bft) S-SW 202 1,6 C 0,8 C
29.01.2013 07:26 2,9 C 91 % 1004,6 hPa 0,0 l/m 14,8 km/h (3 Bft) W-SW 247 1,6 C -0,8 C
29.01.2013 07:31 3,0 C 91 % 1004,6 hPa 0,0 l/m 17,3 km/h (3 Bft) W-SW 247 1,7 C -1,1 C
29.01.2013 07:36 3,0 C 91 % 1004,4 hPa 0,0 l/m 9,0 km/h (2 Bft) S-SW 202 1,7 C 0,5 C
29.01.2013 07:41 3,0 C 91 % 1004,4 hPa 0,0 l/m 12,2 km/h (2 Bft) S-SW 202 1,7 C -0,2 C
29.01.2013 07:46 3,0 C 91 % 1004,4 hPa 0,0 l/m 6,8 km/h (2 Bft) S 180 1,7 C 1,1 C
29.01.2013 07:51 3,0 C 91 % 1004,5 hPa 0,0 l/m 5,8 km/h (2 Bft) S-SO 157 1,7 C 1,5 C
29.01.2013 07:56 3,0 C 91 % 1004,6 hPa 0,0 l/m 6,8 km/h (2 Bft) S-SW 202 1,7 C 1,1 C
29.01.2013 08:01 2,9 C 91 % 1004,3 hPa 0,0 l/m 13,7 km/h (3 Bft) S-SW 202 1,6 C -0,6 C
29.01.2013 08:06 3,0 C 91 % 1004,4 hPa 0,0 l/m 12,2 km/h (2 Bft) S-SW 202 1,7 C -0,2 C
29.01.2013 08:11 3,1 C 91 % 1004,4 hPa 0,0 l/m 13,3 km/h (3 Bft) SW 225 1,8 C -0,3 C
29.01.2013 08:16 3,1 C 91 % 1004,4 hPa 0,0 l/m 11,9 km/h (2 Bft) W-SW 247 1,8 C -0,0 C
29.01.2013 08:21 3,1 C 91 % 1004,2 hPa 0,0 l/m 12,2 km/h (2 Bft) S-SW 202 1,8 C -0,1 C
29.01.2013 08:26 3,2 C 91 % 1004,2 hPa 0,0 l/m 6,5 km/h (2 Bft) SW 225 1,9 C 1,5 C
29.01.2013 08:31 3,2 C 91 % 1004,4 hPa 0,0 l/m 15,5 km/h (3 Bft) SW 225 1,9 C -0,6 C
29.01.2013 08:36 3,2 C 91 % 1004,4 hPa 0,0 l/m 13,7 km/h (3 Bft) SW 225 1,9 C -0,2 C
29.01.2013 08:41 3,2 C 91 % 1004,2 hPa 0,0 l/m 9,4 km/h (2 Bft) W-SW 247 1,9 C 0,7 C
29.01.2013 08:46 3,1 C 91 % 1004,2 hPa 0,0 l/m 14,4 km/h (3 Bft) S-SW 202 1,8 C -0,5 C
29.01.2013 08:51 3,1 C 91 % 1004,2 hPa 0,0 l/m 7,6 km/h (2 Bft) S-SO 157 1,8 C 1,0 C
29.01.2013 08:56 3,1 C 91 % 1004,3 hPa 0,0 l/m 14,0 km/h (3 Bft) S-SW 202 1,8 C -0,4 C
29.01.2013 09:01 3,2 C 91 % 1004,4 hPa 0,0 l/m 10,8 km/h (2 Bft) W-SW 247 1,9 C 0,3 C
29.01.2013 09:06 3,3 C 92 % 1004,4 hPa 0,0 l/m 10,1 km/h (2 Bft) S 180 2,1 C 0,6 C
29.01.2013 09:11 3,5 C 92 % 1004,5 hPa 0,0 l/m 16,9 km/h (3 Bft) W-SW 247 2,3 C -0,4 C
29.01.2013 09:16 3,6 C 92 % 1004,5 hPa 0,0 l/m 7,6 km/h (2 Bft) SW 225 2,4 C 1,6 C
29.01.2013 09:21 3,8 C 92 % 1004,5 hPa 0,0 l/m 15,1 km/h (3 Bft) W-SW 247 2,6 C 0,3 C
29.01.2013 09:26 3,8 C 92 % 1004,5 hPa 0,0 l/m 7,2 km/h (2 Bft) S-SW 202 2,6 C 2,0 C
29.01.2013 09:31 3,9 C 92 % 1004,5 hPa 0,0 l/m 11,9 km/h (2 Bft) S 180 2,7 C 0,9 C
29.01.2013 09:36 4,1 C 92 % 1004,5 hPa 0,0 l/m 7,2 km/h (2 Bft) S 180 2,9 C 2,3 C
29.01.2013 09:41 3,9 C 92 % 1004,2 hPa 0,0 l/m 16,9 km/h (3 Bft) W-SW 247 2,7 C 0,1 C
29.01.2013 09:46 3,9 C 92 % 1004,2 hPa 0,0 l/m 8,3 km/h (2 Bft) S 180 2,7 C 1,8 C
29.01.2013 09:51 3,9 C 92 % 1004,3 hPa 0,0 l/m 26,3 km/h (4 Bft) W 270 2,7 C -1,0 C
29.01.2013 09:56 3,9 C 92 % 1004,4 hPa 0,0 l/m 14,4 km/h (3 Bft) S-SW 202 2,7 C 0,5 C
29.01.2013 10:01 3,8 C 92 % 1004,4 hPa 0,0 l/m 13,7 km/h (3 Bft) W-SW 247 2,6 C 0,5 C
29.01.2013 10:06 3,9 C 92 % 1004,3 hPa 0,0 l/m 7,2 km/h (2 Bft) W-SW 247 2,7 C 2,1 C
29.01.2013 10:11 3,9 C 92 % 1004,5 hPa 0,0 l/m 12,6 km/h (3 Bft) W-SW 247 2,7 C 0,8 C
29.01.2013 10:16 3,9 C 92 % 1004,5 hPa 0,0 l/m 15,8 km/h (3 Bft) SW 225 2,7 C 0,3 C
29.01.2013 10:21 3,9 C 92 % 1004,5 hPa 0,0 l/m 14,8 km/h (3 Bft) W-SW 247 2,7 C 0,4 C
29.01.2013 10:26 4,0 C 92 % 1004,6 hPa 0,0 l/m 12,2 km/h (2 Bft) S 180 2,8 C 1,0 C
29.01.2013 10:31 3,9 C 92 % 1004,6 hPa 0,0 l/m 13,3 km/h (3 Bft) W-SW 247 2,7 C 0,7 C
29.01.2013 10:36 4,0 C 92 % 1004,7 hPa 0,0 l/m 10,8 km/h (2 Bft) SW 225 2,8 C 1,3 C
29.01.2013 10:41 4,1 C 92 % 1004,7 hPa 0,0 l/m 6,5 km/h (2 Bft) SW 225 2,9 C 2,5 C
29.01.2013 10:46 4,1 C 92 % 1004,9 hPa 0,0 l/m 8,3 km/h (2 Bft) S-SW 202 2,9 C 2,0 C
29.01.2013 10:51 4,3 C 92 % 1004,9 hPa 0,0 l/m 6,1 km/h (2 Bft) SW 225 3,1 C 2,9 C
29.01.2013 10:56 4,5 C 92 % 1004,8 hPa 0,0 l/m 9,7 km/h (2 Bft) SW 225 3,3 C 2,1 C
29.01.2013 11:01 4,6 C 92 % 1004,7 hPa 0,0 l/m 8,3 km/h (2 Bft) S-SW 202 3,4 C 2,6 C
29.01.2013 11:06 4,7 C 92 % 1004,8 hPa 0,0 l/m 8,3 km/h (2 Bft) SW 225 3,5 C 2,7 C
29.01.2013 11:11 4,9 C 92 % 1004,9 hPa 0,0 l/m 15,8 km/h (3 Bft) SW 225 3,7 C 1,5 C
29.01.2013 11:16 5,0 C 92 % 1004,9 hPa 0,0 l/m 10,1 km/h (2 Bft) W 270 3,8 C 2,6 C
29.01.2013 11:21 5,1 C 92 % 1004,8 hPa 0,0 l/m 12,2 km/h (2 Bft) SW 225 3,9 C 2,3 C
29.01.2013 11:26 5,1 C 93 % 1004,9 hPa 0,0 l/m 11,9 km/h (2 Bft) S-SW 202 4,1 C 2,4 C
29.01.2013 11:31 5,2 C 93 % 1004,9 hPa 0,0 l/m 6,5 km/h (2 Bft) S-SW 202 4,2 C 3,8 C
29.01.2013 11:36 5,3 C 93 % 1005,0 hPa 0,0 l/m 7,2 km/h (2 Bft) S-SW 202 4,3 C 3,7 C
29.01.2013 11:41 5,3 C 93 % 1004,9 hPa 0,0 l/m 13,0 km/h (3 Bft) W-SW 247 4,3 C 2,4 C
29.01.2013 11:46 5,4 C 93 % 1004,9 hPa 0,0 l/m 12,6 km/h (3 Bft) SW 225 4,4 C 2,6 C
29.01.2013 11:51 5,5 C 92 % 1004,8 hPa 0,0 l/m 5,8 km/h (2 Bft) W-SW 247 4,3 C 4,4 C
29.01.2013 11:56 5,6 C 92 % 1004,9 hPa 0,0 l/m 12,6 km/h (3 Bft) S-SW 202 4,4 C 2,9 C
29.01.2013 12:01 5,6 C 92 % 1004,8 hPa 0,5 l/m 15,5 km/h (3 Bft) W-SW 247 4,4 C 2,4 C
29.01.2013 12:06 5,6 C 92 % 1004,8 hPa 0,0 l/m 10,1 km/h (2 Bft) W-SW 247 4,4 C 3,4 C
29.01.2013 12:11 5,6 C 92 % 1004,7 hPa 0,0 l/m 9,0 km/h (2 Bft) S 180 4,4 C 3,6 C
29.01.2013 12:16 5,6 C 92 % 1004,8 hPa 0,0 l/m 10,4 km/h (2 Bft) W-SW 247 4,4 C 3,3 C
29.01.2013 12:21 5,8 C 92 % 1004,8 hPa 0,0 l/m 8,6 km/h (2 Bft) S-SW 202 4,6 C 3,9 C
29.01.2013 12:26 5,8 C 92 % 1004,7 hPa 0,0 l/m 5,4 km/h (1 Bft) SW 225 4,6 C 4,8 C
29.01.2013 12:31 5,8 C 92 % 1004,8 hPa 0,0 l/m 8,6 km/h (2 Bft) S-SW 202 4,6 C 3,9 C
29.01.2013 12:36 5,9 C 92 % 1004,8 hPa 0,0 l/m 19,1 km/h (3 Bft) SW 225 4,7 C 2,3 C
29.01.2013 12:41 5,9 C 92 % 1004,9 hPa 0,0 l/m 12,6 km/h (3 Bft) S-SW 202 4,7 C 3,2 C
29.01.2013 12:46 6,0 C 92 % 1004,9 hPa 0,0 l/m 9,4 km/h (2 Bft) S-SW 202 4,8 C 4,0 C
29.01.2013 12:51 6,1 C 92 % 1005,0 hPa 0,0 l/m 16,6 km/h (3 Bft) S 180 4,9 C 2,9 C
29.01.2013 12:56 6,1 C 92 % 1005,1 hPa 0,0 l/m 12,6 km/h (3 Bft) W-SW 247 4,9 C 3,5 C
29.01.2013 13:01 6,1 C 92 % 1005,1 hPa 0,0 l/m 10,4 km/h (2 Bft) W-SW 247 4,9 C 3,9 C
29.01.2013 13:06 6,1 C 92 % 1005,1 hPa 0,0 l/m 14,4 km/h (3 Bft) S-SW 202 4,9 C 3,2 C
29.01.2013 13:11 6,1 C 92 % 1005,0 hPa 0,0 l/m 12,2 km/h (2 Bft) W-SW 247 4,9 C 3,6 C
29.01.2013 13:16 6,1 C 91 % 1004,9 hPa 0,0 l/m 10,4 km/h (2 Bft) SW 225 4,7 C 3,9 C
29.01.2013 13:21 6,2 C 91 % 1005,1 hPa 0,0 l/m 7,9 km/h (2 Bft) W-SW 247 4,8 C 4,6 C
29.01.2013 13:26 6,3 C 92 % 1005,0 hPa 0,0 l/m 5,4 km/h (1 Bft) W-SW 247 5,1 C 5,4 C
29.01.2013 13:31 6,5 C 92 % 1005,0 hPa 0,0 l/m 7,9 km/h (2 Bft) W-SW 247 5,3 C 4,9 C
29.01.2013 13:36 6,6 C 92 % 1005,0 hPa 0,0 l/m 7,9 km/h (2 Bft) S-SW 202 5,4 C 5,0 C
29.01.2013 13:41 6,6 C 92 % 1005,0 hPa 0,0 l/m 5,4 km/h (1 Bft) W-SW 247 5,4 C 5,8 C
29.01.2013 13:46 6,8 C 92 % 1005,1 hPa 0,0 l/m 8,3 km/h (2 Bft) SW 225 5,6 C 5,2 C
29.01.2013 13:51 6,9 C 91 % 1005,2 hPa 0,0 l/m 7,2 km/h (2 Bft) W-SW 247 5,5 C 5,6 C
29.01.2013 13:56 6,9 C 91 % 1005,3 hPa 0,0 l/m 9,7 km/h (2 Bft) S-SW 202 5,5 C 5,0 C
29.01.2013 14:01 7,0 C 91 % 1005,4 hPa 0,0 l/m 10,8 km/h (2 Bft) W-SW 247 5,6 C 4,9 C
29.01.2013 14:06 7,1 C 91 % 1005,4 hPa 0,0 l/m 13,0 km/h (3 Bft) W-SW 247 5,7 C 4,6 C
29.01.2013 14:11 7,0 C 90 % 1005,5 hPa 0,0 l/m 9,7 km/h (2 Bft) SW 225 5,5 C 5,1 C
29.01.2013 14:16 7,0 C 90 % 1005,5 hPa 0,0 l/m 14,8 km/h (3 Bft) S-SW 202 5,5 C 4,2 C
29.01.2013 14:21 7,1 C 90 % 1005,5 hPa 0,0 l/m 7,6 km/h (2 Bft) SW 225 5,6 C 5,7 C
29.01.2013 14:26 7,0 C 90 % 1005,5 hPa 0,0 l/m 8,6 km/h (2 Bft) W-SW 247 5,5 C 5,3 C
29.01.2013 14:31 7,0 C 90 % 1005,5 hPa 0,0 l/m 16,2 km/h (3 Bft) W 270 5,5 C 4,1 C
29.01.2013 14:36 7,0 C 90 % 1005,4 hPa 0,0 l/m 6,5 km/h (2 Bft) W-SW 247 5,5 C 5,9 C
29.01.2013 14:41 7,0 C 90 % 1005,5 hPa 0,0 l/m 12,2 km/h (2 Bft) W-SW 247 5,5 C 4,6 C
29.01.2013 14:46 7,0 C 90 % 1005,6 hPa 0,0 l/m 10,4 km/h (2 Bft) W-SW 247 5,5 C 5,0 C
29.01.2013 14:51 6,9 C 90 % 1005,7 hPa 0,0 l/m 5,4 km/h (1 Bft) SW 225 5,4 C 6,1 C
29.01.2013 14:56 6,9 C 90 % 1005,7 hPa 0,0 l/m 9,4 km/h (2 Bft) W-SW 247 5,4 C 5,1 C
29.01.2013 15:01 6,9 C 90 % 1005,8 hPa 0,0 l/m 11,9 km/h (2 Bft) SW 225 5,4 C 4,6 C
29.01.2013 15:06 6,9 C 90 % 1005,8 hPa 0,0 l/m 8,3 km/h (2 Bft) W-SW 247 5,4 C 5,3 C
29.01.2013 15:11 6,9 C 90 % 1005,9 hPa 0,0 l/m 5,0 km/h (1 Bft) SW 225 5,4 C 6,2 C
29.01.2013 15:16 6,9 C 90 % 1005,8 hPa 0,0 l/m 14,8 km/h (3 Bft) S-SW 202 5,4 C 4,1 C
29.01.2013 15:21 6,9 C 90 % 1005,8 hPa 0,0 l/m 9,4 km/h (2 Bft) SW 225 5,4 C 5,1 C
29.01.2013 15:26 6,9 C 90 % 1005,8 hPa 0,0 l/m 9,0 km/h (2 Bft) SW 225 5,4 C 5,1 C
29.01.2013 15:31 6,8 C 90 % 1005,8 hPa 0,0 l/m 5,8 km/h (2 Bft) W-SW 247 5,3 C 5,9 C
29.01.2013 15:36 6,8 C 90 % 1005,8 hPa 0,0 l/m 8,3 km/h (2 Bft) W-SW 247 5,3 C 5,2 C
29.01.2013 15:41 6,7 C 90 % 1005,8 hPa 0,0 l/m 14,4 km/h (3 Bft) W-SW 247 5,2 C 3,9 C
29.01.2013 15:46 6,7 C 90 % 1005,9 hPa 0,0 l/m 6,5 km/h (2 Bft) SW 225 5,2 C 5,5 C
29.01.2013 15:51 6,6 C 90 % 1005,9 hPa 0,0 l/m 12,6 km/h (3 Bft) W-SW 247 5,1 C 4,1 C
29.01.2013 15:56 6,6 C 90 % 1005,9 hPa 0,0 l/m 9,0 km/h (2 Bft) W-SW 247 5,1 C 4,8 C
29.01.2013 16:01 6,4 C 89 % 1005,9 hPa 0,0 l/m 8,6 km/h (2 Bft) W-SW 247 4,7 C 4,6 C
29.01.2013 16:06 6,3 C 89 % 1006,2 hPa 0,0 l/m 5,0 km/h (1 Bft) SW 225 4,6 C 5,6 C
29.01.2013 16:11 6,2 C 89 % 1006,3 hPa 0,0 l/m 5,0 km/h (1 Bft) SW 225 4,5 C 5,4 C
29.01.2013 16:16 6,1 C 90 % 1006,3 hPa 0,0 l/m 6,1 km/h (2 Bft) SW 225 4,6 C 5,0 C
29.01.2013 16:21 5,9 C 90 % 1006,2 hPa 0,0 l/m 8,3 km/h (2 Bft) SW 225 4,4 C 4,1 C
29.01.2013 16:26 5,9 C 90 % 1006,1 hPa 0,0 l/m 7,6 km/h (2 Bft) S-SW 202 4,4 C 4,3 C
29.01.2013 16:31 5,8 C 90 % 1006,2 hPa 0,0 l/m 3,6 km/h (1 Bft) S-SW 202 4,3 C 5,8 C
29.01.2013 16:36 5,8 C 90 % 1006,3 hPa 0,0 l/m 5,4 km/h (1 Bft) W-SW 247 4,3 C 4,8 C
29.01.2013 16:41 5,6 C 91 % 1006,3 hPa 0,0 l/m 4,7 km/h (1 Bft) W-SW 247 4,2 C 4,9 C
29.01.2013 16:46 5,6 C 91 % 1006,3 hPa 0,0 l/m 4,0 km/h (1 Bft) S-SW 202 4,2 C 5,6 C
29.01.2013 16:51 5,5 C 91 % 1006,5 hPa 0,0 l/m 2,5 km/h (1 Bft) SW 225 4,2 C 5,5 C
29.01.2013 16:56 5,4 C 91 % 1006,6 hPa 0,0 l/m 5,4 km/h (1 Bft) SW 225 4,1 C 4,4 C
29.01.2013 17:01 5,3 C 91 % 1006,4 hPa 0,0 l/m 4,0 km/h (1 Bft) W-SW 247 4,0 C 5,3 C
29.01.2013 17:06 5,2 C 91 % 1006,5 hPa 0,0 l/m 5,0 km/h (1 Bft) SW 225 3,9 C 4,3 C
29.01.2013 17:11 5,2 C 91 % 1006,5 hPa 0,0 l/m 5,8 km/h (2 Bft) S 180 3,9 C 4,0 C
29.01.2013 17:16 5,2 C 91 % 1006,6 hPa 0,0 l/m 4,7 km/h (1 Bft) SW 225 3,9 C 4,4 C
29.01.2013 17:21 5,2 C 91 % 1006,6 hPa 0,0 l/m 8,3 km/h (2 Bft) SW 225 3,9 C 3,3 C
29.01.2013 17:26 5,2 C 91 % 1006,8 hPa 0,0 l/m 6,1 km/h (2 Bft) W-SW 247 3,9 C 3,9 C
29.01.2013 17:31 5,2 C 92 % 1007,0 hPa 0,0 l/m 12,2 km/h (2 Bft) SW 225 4,0 C 2,5 C
29.01.2013 17:36 5,2 C 92 % 1007,0 hPa 0,0 l/m 11,2 km/h (2 Bft) SW 225 4,0 C 2,7 C
29.01.2013 17:41 5,3 C 92 % 1007,1 hPa 0,5 l/m 13,7 km/h (3 Bft) W-SW 247 4,1 C 2,3 C
29.01.2013 17:46 5,3 C 92 % 1007,0 hPa 0,0 l/m 9,0 km/h (2 Bft) SW 225 4,1 C 3,2 C
29.01.2013 17:51 5,3 C 92 % 1007,0 hPa 0,0 l/m 6,1 km/h (2 Bft) SW 225 4,1 C 4,0 C
29.01.2013 17:56 5,3 C 92 % 1006,9 hPa 0,0 l/m 12,6 km/h (3 Bft) W-SW 247 4,1 C 2,5 C
29.01.2013 18:01 5,3 C 93 % 1007,1 hPa 0,0 l/m 7,2 km/h (2 Bft) SW 225 4,3 C 3,7 C
29.01.2013 18:06 5,3 C 93 % 1007,0 hPa 0,0 l/m 11,5 km/h (2 Bft) S-SW 202 4,3 C 2,7 C
29.01.2013 18:11 5,4 C 93 % 1006,9 hPa 0,0 l/m 11,2 km/h (2 Bft) W-SW 247 4,4 C 2,9 C
29.01.2013 18:16 5,4 C 93 % 1006,6 hPa 0,0 l/m 13,7 km/h (3 Bft) W-SW 247 4,4 C 2,4 C
29.01.2013 18:21 5,4 C 93 % 1006,8 hPa 0,0 l/m 4,7 km/h (1 Bft) W-SW 247 4,4 C 4,7 C
29.01.2013 18:26 5,4 C 93 % 1006,9 hPa 0,0 l/m 7,2 km/h (2 Bft) W-SW 247 4,4 C 3,8 C
29.01.2013 18:31 5,4 C 93 % 1006,9 hPa 0,0 l/m 8,3 km/h (2 Bft) W-SW 247 4,4 C 3,5 C
29.01.2013 18:36 5,4 C 93 % 1006,9 hPa 0,0 l/m 9,7 km/h (2 Bft) SW 225 4,4 C 3,2 C
29.01.2013 18:41 5,4 C 93 % 1006,9 hPa 0,0 l/m 6,1 km/h (2 Bft) W-SW 247 4,4 C 4,2 C
29.01.2013 18:46 5,4 C 93 % 1007,1 hPa 0,0 l/m 9,0 km/h (2 Bft) W-SW 247 4,4 C 3,4 C
29.01.2013 18:51 5,4 C 93 % 1007,1 hPa 0,0 l/m 8,3 km/h (2 Bft) S-SW 202 4,4 C 3,5 C
29.01.2013 18:56 5,3 C 93 % 1007,2 hPa 0,0 l/m 4,3 km/h (1 Bft) S-SW 202 4,3 C 5,3 C
29.01.2013 19:01 5,3 C 93 % 1007,2 hPa 0,0 l/m 4,0 km/h (1 Bft) SW 225 4,3 C 5,3 C
29.01.2013 19:06 5,2 C 93 % 1007,2 hPa 0,0 l/m 6,5 km/h (2 Bft) SW 225 4,2 C 3,8 C
29.01.2013 19:11 5,1 C 93 % 1007,2 hPa 0,0 l/m 9,4 km/h (2 Bft) W-SW 247 4,1 C 2,9 C
29.01.2013 19:16 5,1 C 93 % 1007,1 hPa 0,0 l/m 3,6 km/h (1 Bft) S-SW 202 4,1 C 5,1 C
29.01.2013 19:21 5,2 C 93 % 1007,0 hPa 0,0 l/m 10,4 km/h (2 Bft) W-SW 247 4,2 C 2,8 C
29.01.2013 19:26 5,2 C 93 % 1007,1 hPa 0,0 l/m 6,8 km/h (2 Bft) SW 225 4,2 C 3,7 C
29.01.2013 19:31 5,1 C 93 % 1007,0 hPa 0,0 l/m 12,2 km/h (2 Bft) W-SW 247 4,1 C 2,3 C
29.01.2013 19:36 5,1 C 93 % 1007,1 hPa 0,0 l/m 5,0 km/h (1 Bft) S 180 4,1 C 4,2 C
29.01.2013 19:41 5,1 C 93 % 1007,0 hPa 0,0 l/m 8,6 km/h (2 Bft) SW 225 4,1 C 3,1 C
29.01.2013 19:46 5,1 C 93 % 1006,9 hPa 0,0 l/m 6,1 km/h (2 Bft) W-SW 247 4,1 C 3,8 C
29.01.2013 19:51 5,1 C 93 % 1007,0 hPa 0,0 l/m 6,1 km/h (2 Bft) S-SW 202 4,1 C 3,8 C
29.01.2013 19:56 5,1 C 93 % 1006,8 hPa 0,0 l/m 4,7 km/h (1 Bft) S 180 4,1 C 4,3 C
29.01.2013 20:01 5,1 C 93 % 1006,9 hPa 0,0 l/m 4,0 km/h (1 Bft) S-SW 202 4,1 C 5,1 C
29.01.2013 20:06 5,1 C 93 % 1006,8 hPa 0,0 l/m 4,0 km/h (1 Bft) S-SW 202 4,1 C 5,1 C
29.01.2013 20:11 5,2 C 93 % 1006,8 hPa 0,0 l/m 13,3 km/h (3 Bft) SW 225 4,2 C 2,3 C
29.01.2013 20:16 5,2 C 93 % 1006,8 hPa 0,0 l/m 12,6 km/h (3 Bft) W-SW 247 4,2 C 2,4 C
29.01.2013 20:21 5,3 C 93 % 1006,7 hPa 0,0 l/m 6,1 km/h (2 Bft) S 180 4,3 C 4,0 C
29.01.2013 20:26 5,3 C 93 % 1006,8 hPa 0,0 l/m 5,8 km/h (2 Bft) S-SW 202 4,3 C 4,1 C
29.01.2013 20:31 5,3 C 93 % 1006,8 hPa 0,0 l/m 7,6 km/h (2 Bft) W-SW 247 4,3 C 3,6 C
29.01.2013 20:36 5,3 C 93 % 1006,7 hPa 0,0 l/m 5,4 km/h (1 Bft) S-SW 202 4,3 C 4,3 C
29.01.2013 20:41 5,3 C 93 % 1006,5 hPa 0,0 l/m 6,5 km/h (2 Bft) S-SW 202 4,3 C 3,9 C
29.01.2013 20:46 5,3 C 93 % 1006,6 hPa 0,0 l/m 5,8 km/h (2 Bft) S-SO 157 4,3 C 4,1 C
29.01.2013 20:51 5,3 C 93 % 1006,6 hPa 0,0 l/m 7,2 km/h (2 Bft) S-SW 202 4,3 C 3,7 C
29.01.2013 20:56 5,3 C 93 % 1006,5 hPa 0,0 l/m 9,4 km/h (2 Bft) S-SO 157 4,3 C 3,1 C
29.01.2013 21:01 5,3 C 93 % 1006,8 hPa 0,0 l/m 8,3 km/h (2 Bft) S-SW 202 4,3 C 3,4 C
29.01.2013 21:06 5,3 C 93 % 1006,8 hPa 0,0 l/m 0,0 km/h (0 Bft) S-SO 157 4,3 C 5,3 C
29.01.2013 21:11 5,3 C 93 % 1006,9 hPa 0,0 l/m 1,4 km/h (1 Bft) S 180 4,3 C 5,3 C
29.01.2013 21:16 5,1 C 93 % 1006,8 hPa 0,0 l/m 7,6 km/h (2 Bft) S-SW 202 4,1 C 3,4 C
29.01.2013 21:21 5,1 C 93 % 1006,6 hPa 0,0 l/m 10,1 km/h (2 Bft) S-SW 202 4,1 C 2,8 C
29.01.2013 21:26 4,9 C 93 % 1006,8 hPa 0,0 l/m 11,9 km/h (2 Bft) SW 225 3,9 C 2,2 C
29.01.2013 21:31 4,9 C 93 % 1006,8 hPa 0,0 l/m 9,7 km/h (2 Bft) S-SW 202 3,9 C 2,6 C
29.01.2013 21:36 4,9 C 93 % 1006,6 hPa 0,0 l/m 3,6 km/h (1 Bft) S 180 3,9 C 4,9 C
29.01.2013 21:41 4,9 C 93 % 1006,5 hPa 0,0 l/m 4,0 km/h (1 Bft) SW 225 3,9 C 4,9 C
29.01.2013 21:46 4,8 C 93 % 1006,5 hPa 0,0 l/m 7,2 km/h (2 Bft) SW 225 3,8 C 3,1 C
29.01.2013 21:51 4,7 C 93 % 1006,3 hPa 0,0 l/m 5,0 km/h (1 Bft) S-SO 157 3,7 C 3,7 C
29.01.2013 21:56 4,7 C 93 % 1006,2 hPa 0,0 l/m 7,6 km/h (2 Bft) S-SW 202 3,7 C 2,9 C
29.01.2013 22:01 4,6 C 93 % 1006,1 hPa 0,0 l/m 6,5 km/h (2 Bft) SW 225 3,6 C 3,1 C
29.01.2013 22:06 4,6 C 93 % 1006,1 hPa 0,0 l/m 11,9 km/h (2 Bft) SW 225 3,6 C 1,8 C
29.01.2013 22:11 4,6 C 93 % 1006,2 hPa 0,0 l/m 20,2 km/h (4 Bft) S-SW 202 3,6 C 0,5 C
29.01.2013 22:16 4,6 C 93 % 1005,9 hPa 0,0 l/m 10,4 km/h (2 Bft) S 180 3,6 C 2,1 C
29.01.2013 22:21 4,6 C 93 % 1006,0 hPa 0,0 l/m 12,6 km/h (3 Bft) SW 225 3,6 C 1,7 C
29.01.2013 22:26 4,6 C 93 % 1006,0 hPa 0,0 l/m 6,8 km/h (2 Bft) S 180 3,6 C 3,0 C
29.01.2013 22:31 4,6 C 93 % 1005,9 hPa 0,0 l/m 6,1 km/h (2 Bft) S 180 3,6 C 3,2 C
29.01.2013 22:36 4,6 C 93 % 1005,7 hPa 0,0 l/m 7,9 km/h (2 Bft) SW 225 3,6 C 2,7 C
29.01.2013 22:41 4,6 C 93 % 1005,8 hPa 0,0 l/m 8,6 km/h (2 Bft) SW 225 3,6 C 2,5 C
29.01.2013 22:46 4,6 C 93 % 1005,7 hPa 0,0 l/m 10,4 km/h (2 Bft) S 180 3,6 C 2,1 C
29.01.2013 22:51 4,6 C 93 % 1005,7 hPa 0,0 l/m 4,0 km/h (1 Bft) W-SW 247 3,6 C 4,6 C
29.01.2013 22:56 4,7 C 93 % 1005,5 hPa 0,0 l/m 6,1 km/h (2 Bft) S-SW 202 3,7 C 3,3 C
29.01.2013 23:01 4,7 C 93 % 1005,5 hPa 0,0 l/m 18,4 km/h (3 Bft) S-SW 202 3,7 C 0,9 C
29.01.2013 23:06 4,8 C 94 % 1005,3 hPa 0,0 l/m 11,2 km/h (2 Bft) SW 225 3,9 C 2,2 C
29.01.2013 23:11 4,8 C 94 % 1005,4 hPa 0,5 l/m 7,6 km/h (2 Bft) S 180 3,9 C 3,0 C
29.01.2013 23:16 4,8 C 94 % 1005,3 hPa 0,0 l/m 5,0 km/h (1 Bft) S 180 3,9 C 3,9 C
29.01.2013 23:21 4,8 C 94 % 1005,0 hPa 0,0 l/m 5,4 km/h (1 Bft) S-SO 157 3,9 C 3,7 C
29.01.2013 23:26 4,8 C 94 % 1005,1 hPa 0,0 l/m 6,1 km/h (2 Bft) S 180 3,9 C 3,5 C
29.01.2013 23:31 4,9 C 94 % 1005,0 hPa 0,0 l/m 6,8 km/h (2 Bft) W-SW 247 4,0 C 3,4 C
29.01.2013 23:36 4,9 C 94 % 1005,0 hPa 0,0 l/m 9,0 km/h (2 Bft) S 180 4,0 C 2,8 C
29.01.2013 23:41 4,9 C 94 % 1004,9 hPa 0,0 l/m 5,4 km/h (1 Bft) S 180 4,0 C 3,8 C
29.01.2013 23:46 4,9 C 94 % 1004,8 hPa 0,0 l/m 13,3 km/h (3 Bft) SW 225 4,0 C 1,9 C
29.01.2013 23:51 5,0 C 94 % 1004,8 hPa 0,5 l/m 8,6 km/h (2 Bft) S-SW 202 4,1 C 3,0 C
29.01.2013 23:56 5,1 C 94 % 1004,8 hPa 0,0 l/m 6,5 km/h (2 Bft) S 180 4,2 C 3,7 C
_ Min-Zeit 00:01 02:21 06:51 - 21:06 - - 00:01 05:31
Minimum _ 1,3 C 88 % 1004,1 hPa - 0,0 km/h (0 Bft) - - -0,2 C -3,3 C
_ Max-Zeit 14:06 23:06 00:01 03:26 05:41 - - 14:06 15:11
Maximum _ 7,1 C 94 % 1012,1 hPa 0,5 l/m 27,4 km/h
W-SW (4 Bft)
- - 5,7 C 6,2 C
Durchschnitt _ 4,2 C 91 % 1006,1 hPa #3,1 l/m 10,2 km/h (2 Bft) S-SW - 2,9 C 1,8 C
(c) by David Heller